sensor_id;sensor_type;location;lat;lon;timestamp;pressure;altitude;pressure_sealevel;temperature;humidity
54994;BME280;40891;47.242;8.648;2023-05-16T00:02:18;96009.16;;;12.73;100.00
54994;BME280;40891;47.242;8.648;2023-05-16T00:04:44;96003.47;;;12.68;100.00
54994;BME280;40891;47.242;8.648;2023-05-16T00:07:10;96005.50;;;12.67;100.00
54994;BME280;40891;47.242;8.648;2023-05-16T00:09:35;96005.31;;;12.71;100.00
54994;BME280;40891;47.242;8.648;2023-05-16T00:12:01;96003.41;;;12.77;100.00
54994;BME280;40891;47.242;8.648;2023-05-16T00:14:26;95995.50;;;12.75;100.00
54994;BME280;40891;47.242;8.648;2023-05-16T00:16:52;95999.84;;;12.76;100.00
54994;BME280;40891;47.242;8.648;2023-05-16T00:19:18;95985.91;;;12.76;100.00
54994;BME280;40891;47.242;8.648;2023-05-16T00:21:44;95985.91;;;12.76;100.00
54994;BME280;40891;47.242;8.648;2023-05-16T00:24:10;95982.63;;;12.78;100.00
54994;BME280;40891;47.242;8.648;2023-05-16T00:26:35;95981.25;;;12.73;100.00
54994;BME280;40891;47.242;8.648;2023-05-16T00:29:00;95984.25;;;12.70;100.00
54994;BME280;40891;47.242;8.648;2023-05-16T00:31:26;95982.97;;;12.71;100.00
54994;BME280;40891;47.242;8.648;2023-05-16T00:33:52;95978.03;;;12.75;100.00
54994;BME280;40891;47.242;8.648;2023-05-16T00:36:17;95968.88;;;12.74;100.00
54994;BME280;40891;47.242;8.648;2023-05-16T00:38:43;95969.75;;;12.80;100.00
54994;BME280;40891;47.242;8.648;2023-05-16T00:41:08;95969.94;;;12.77;100.00
54994;BME280;40891;47.242;8.648;2023-05-16T00:43:34;95966.78;;;12.84;100.00
54994;BME280;40891;47.242;8.648;2023-05-16T00:45:59;95971.59;;;12.83;100.00
54994;BME280;40891;47.242;8.648;2023-05-16T00:48:25;95973.97;;;12.76;100.00
54994;BME280;40891;47.242;8.648;2023-05-16T00:50:50;95972.44;;;12.75;100.00
54994;BME280;40891;47.242;8.648;2023-05-16T00:53:17;95968.28;;;12.70;100.00
54994;BME280;40891;47.242;8.648;2023-05-16T00:55:43;95968.47;;;12.67;100.00
54994;BME280;40891;47.242;8.648;2023-05-16T00:58:10;95961.34;;;12.66;100.00
54994;BME280;40891;47.242;8.648;2023-05-16T01:00:35;95962.22;;;12.72;100.00
54994;BME280;40891;47.242;8.648;2023-05-16T01:03:04;95959.16;;;12.70;100.00
54994;BME280;40891;47.242;8.648;2023-05-16T01:05:29;95963.47;;;12.71;100.00
54994;BME280;40891;47.242;8.648;2023-05-16T01:07:55;95959.16;;;12.70;100.00
54994;BME280;40891;47.242;8.648;2023-05-16T01:10:21;95957.00;;;12.65;100.00
54994;BME280;40891;47.242;8.648;2023-05-16T01:13:11;95959.69;;;12.59;100.00
54994;BME280;40891;47.242;8.648;2023-05-16T01:15:50;95966.03;;;12.60;100.00
54994;BME280;40891;47.242;8.648;2023-05-16T01:18:56;95964.47;;;12.59;100.00
54994;BME280;40891;47.242;8.648;2023-05-16T01:21:43;95959.69;;;12.59;100.00
54994;BME280;40891;47.242;8.648;2023-05-16T01:24:19;95963.91;;;12.55;100.00
54994;BME280;40891;47.242;8.648;2023-05-16T01:26:47;95958.22;;;12.49;100.00
54994;BME280;40891;47.242;8.648;2023-05-16T01:29:14;95963.31;;;12.51;100.00
54994;BME280;40891;47.242;8.648;2023-05-16T01:31:39;95965.63;;;12.52;100.00
54994;BME280;40891;47.242;8.648;2023-05-16T01:34:05;95956.97;;;12.50;100.00
54994;BME280;40891;47.242;8.648;2023-05-16T01:36:47;95962.06;;;12.52;100.00
54994;BME280;40891;47.242;8.648;2023-05-16T01:39:28;95961.34;;;12.66;100.00
54994;BME280;40891;47.242;8.648;2023-05-16T01:42:06;95957.66;;;12.60;100.00
54994;BME280;40891;47.242;8.648;2023-05-16T01:44:58;95963.53;;;12.62;100.00
54994;BME280;40891;47.242;8.648;2023-05-16T01:47:24;95956.13;;;12.59;100.00
54994;BME280;40891;47.242;8.648;2023-05-16T01:50:09;95962.19;;;12.57;100.00
54994;BME280;40891;47.242;8.648;2023-05-16T01:52:41;95957.38;;;12.58;100.00
54994;BME280;40891;47.242;8.648;2023-05-16T01:55:13;95961.59;;;12.53;100.00
54994;BME280;40891;47.242;8.648;2023-05-16T01:57:41;95965.63;;;12.52;100.00
54994;BME280;40891;47.242;8.648;2023-05-16T02:00:08;95957.44;;;12.49;100.00
54994;BME280;40891;47.242;8.648;2023-05-16T02:02:33;95950.50;;;12.44;100.00
54994;BME280;40891;47.242;8.648;2023-05-16T02:04:58;95948.47;;;12.45;100.00
54994;BME280;40891;47.242;8.648;2023-05-16T02:07:24;95954.53;;;12.43;100.00
54994;BME280;40891;47.242;8.648;2023-05-16T02:09:49;95956.25;;;12.41;100.00
54994;BME280;40891;47.242;8.648;2023-05-16T02:12:15;95953.69;;;12.28;100.00
54994;BME280;40891;47.242;8.648;2023-05-16T02:14:40;95957.09;;;12.32;100.00
54994;BME280;40891;47.242;8.648;2023-05-16T02:17:06;95954.75;;;12.30;100.00
54994;BME280;40891;47.242;8.648;2023-05-16T02:19:31;95960.66;;;12.33;100.00
54994;BME280;40891;47.242;8.648;2023-05-16T02:21:56;95955.38;;;12.35;100.00
54994;BME280;40891;47.242;8.648;2023-05-16T02:24:22;95962.47;;;12.36;100.00
54994;BME280;40891;47.242;8.648;2023-05-16T02:26:47;95953.19;;;12.39;100.00
54994;BME280;40891;47.242;8.648;2023-05-16T02:29:13;95949.59;;;12.38;100.00
54994;BME280;40891;47.242;8.648;2023-05-16T02:31:39;95950.97;;;12.43;100.00
54994;BME280;40891;47.242;8.648;2023-05-16T02:34:04;95950.97;;;12.43;100.00
54994;BME280;40891;47.242;8.648;2023-05-16T02:36:31;95948.66;;;12.41;100.00
54994;BME280;40891;47.242;8.648;2023-05-16T02:38:58;95944.75;;;12.48;100.00
54994;BME280;40891;47.242;8.648;2023-05-16T02:41:23;95945.31;;;12.52;100.00
54994;BME280;40891;47.242;8.648;2023-05-16T02:43:49;95947.16;;;12.55;100.00
54994;BME280;40891;47.242;8.648;2023-05-16T02:46:22;95941.31;;;12.53;100.00
54994;BME280;40891;47.242;8.648;2023-05-16T02:48:49;95939.56;;;12.55;100.00
54994;BME280;40891;47.242;8.648;2023-05-16T02:51:15;95937.19;;;12.63;100.00
54994;BME280;40891;47.242;8.648;2023-05-16T02:53:40;95941.84;;;12.66;100.00
54994;BME280;40891;47.242;8.648;2023-05-16T02:56:05;95935.88;;;12.73;100.00
54994;BME280;40891;47.242;8.648;2023-05-16T02:58:31;95932.19;;;12.67;100.00
54994;BME280;40891;47.242;8.648;2023-05-16T03:00:57;95929.69;;;12.69;100.00
54994;BME280;40891;47.242;8.648;2023-05-16T03:03:22;95937.41;;;12.74;100.00
54994;BME280;40891;47.242;8.648;2023-05-16T03:05:47;95928.47;;;12.70;100.00
54994;BME280;40891;47.242;8.648;2023-05-16T03:08:13;95932.84;;;12.62;100.00
54994;BME280;40891;47.242;8.648;2023-05-16T03:10:39;95929.13;;;12.65;100.00
54994;BME280;40891;47.242;8.648;2023-05-16T03:13:04;95937.50;;;12.65;100.00
54994;BME280;40891;47.242;8.648;2023-05-16T03:15:29;95930.84;;;12.62;100.00
54994;BME280;40891;47.242;8.648;2023-05-16T03:17:55;95925.25;;;12.62;100.00
54994;BME280;40891;47.242;8.648;2023-05-16T03:20:20;95922.97;;;12.61;100.00
54994;BME280;40891;47.242;8.648;2023-05-16T03:22:46;95930.25;;;12.58;100.00
54994;BME280;40891;47.242;8.648;2023-05-16T03:25:12;95925.16;;;12.57;100.00
54994;BME280;40891;47.242;8.648;2023-05-16T03:27:37;95923.63;;;12.56;100.00
54994;BME280;40891;47.242;8.648;2023-05-16T03:30:03;95928.44;;;12.55;100.00
54994;BME280;40891;47.242;8.648;2023-05-16T03:32:29;95928.59;;;12.52;100.00
54994;BME280;40891;47.242;8.648;2023-05-16T03:34:54;95925.72;;;12.46;100.00
54994;BME280;40891;47.242;8.648;2023-05-16T03:37:19;95921.38;;;12.45;100.00
54994;BME280;40891;47.242;8.648;2023-05-16T03:39:45;95914.06;;;12.48;100.00
54994;BME280;40891;47.242;8.648;2023-05-16T03:42:10;95915.34;;;12.47;100.00
54994;BME280;40891;47.242;8.648;2023-05-16T03:44:36;95916.44;;;12.40;100.00
54994;BME280;40891;47.242;8.648;2023-05-16T03:47:02;95915.22;;;12.41;100.00
54994;BME280;40891;47.242;8.648;2023-05-16T03:49:27;95913.19;;;12.42;100.00
54994;BME280;40891;47.242;8.648;2023-05-16T03:51:52;95913.28;;;12.47;100.00
54994;BME280;40891;47.242;8.648;2023-05-16T03:54:18;95915.00;;;12.45;100.00
54994;BME280;40891;47.242;8.648;2023-05-16T03:56:43;95921.66;;;12.47;100.00
54994;BME280;40891;47.242;8.648;2023-05-16T03:59:08;95914.84;;;12.48;100.00
54994;BME280;40891;47.242;8.648;2023-05-16T04:01:34;95918.78;;;12.42;100.00
54994;BME280;40891;47.242;8.648;2023-05-16T04:03:59;95926.00;;;12.48;100.00
54994;BME280;40891;47.242;8.648;2023-05-16T04:06:24;95922.16;;;12.46;100.00
54994;BME280;40891;47.242;8.648;2023-05-16T04:08:49;95920.59;;;12.45;100.00
54994;BME280;40891;47.242;8.648;2023-05-16T04:11:15;95928.84;;;12.39;100.00
54994;BME280;40891;47.242;8.648;2023-05-16T04:13:40;95932.88;;;12.38;100.00
54994;BME280;40891;47.242;8.648;2023-05-16T04:16:06;95926.25;;;12.36;100.00
54994;BME280;40891;47.242;8.648;2023-05-16T04:18:31;95920.94;;;12.38;100.00
54994;BME280;40891;47.242;8.648;2023-05-16T04:20:57;95929.81;;;12.36;100.00
54994;BME280;40891;47.242;8.648;2023-05-16T04:23:22;95935.22;;;12.40;100.00
54994;BME280;40891;47.242;8.648;2023-05-16T04:25:47;95926.84;;;12.40;100.00
54994;BME280;40891;47.242;8.648;2023-05-16T04:28:13;95940.59;;;12.43;100.00
54994;BME280;40891;47.242;8.648;2023-05-16T04:30:38;95931.75;;;12.45;100.00
54994;BME280;40891;47.242;8.648;2023-05-16T04:33:03;95940.44;;;12.47;100.00
54994;BME280;40891;47.242;8.648;2023-05-16T04:35:29;95944.66;;;12.42;100.00
54994;BME280;40891;47.242;8.648;2023-05-16T04:37:54;95942.59;;;12.43;100.00
54994;BME280;40891;47.242;8.648;2023-05-16T04:40:20;95949.44;;;12.42;100.00
54994;BME280;40891;47.242;8.648;2023-05-16T04:42:45;95942.59;;;12.43;100.00
54994;BME280;40891;47.242;8.648;2023-05-16T04:45:11;95944.75;;;12.48;100.00
54994;BME280;40891;47.242;8.648;2023-05-16T04:47:39;95945.03;;;12.50;100.00
54994;BME280;40891;47.242;8.648;2023-05-16T04:50:05;95936.97;;;12.52;100.00
54994;BME280;40891;47.242;8.648;2023-05-16T04:52:31;95943.31;;;12.52;100.00
54994;BME280;40891;47.242;8.648;2023-05-16T04:54:56;95940.81;;;12.54;100.00
54994;BME280;40891;47.242;8.648;2023-05-16T04:57:24;95942.66;;;12.57;100.00
54994;BME280;40891;47.242;8.648;2023-05-16T04:59:49;95936.59;;;12.59;100.00
54994;BME280;40891;47.242;8.648;2023-05-16T05:02:15;95939.69;;;12.61;100.00
54994;BME280;40891;47.242;8.648;2023-05-16T05:04:40;95934.22;;;12.66;100.00
54994;BME280;40891;47.242;8.648;2023-05-16T05:07:05;95938.31;;;12.80;100.00
54994;BME280;40891;47.242;8.648;2023-05-16T05:09:32;95932.72;;;12.80;100.00
54994;BME280;40891;47.242;8.648;2023-05-16T05:11:57;95931.56;;;12.86;100.00
54994;BME280;40891;47.242;8.648;2023-05-16T05:14:22;95930.31;;;12.87;100.00
54994;BME280;40891;47.242;8.648;2023-05-16T05:16:48;95938.13;;;12.98;100.00
54994;BME280;40891;47.242;8.648;2023-05-16T05:19:13;95944.00;;;13.00;100.00
54994;BME280;40891;47.242;8.648;2023-05-16T05:21:38;95936.69;;;13.03;100.00
54994;BME280;40891;47.242;8.648;2023-05-16T05:24:04;95946.69;;;12.94;100.00
54994;BME280;40891;47.242;8.648;2023-05-16T05:26:30;95946.44;;;13.07;100.00
54994;BME280;40891;47.242;8.648;2023-05-16T05:28:55;95945.94;;;12.94;100.00
54994;BME280;40891;47.242;8.648;2023-05-16T05:31:21;95934.38;;;13.01;100.00
54994;BME280;40891;47.242;8.648;2023-05-16T05:33:46;95943.16;;;13.09;100.00
54994;BME280;40891;47.242;8.648;2023-05-16T05:36:12;95950.28;;;13.10;100.00
54994;BME280;40891;47.242;8.648;2023-05-16T05:38:37;95942.31;;;13.17;100.00
54994;BME280;40891;47.242;8.648;2023-05-16T05:41:03;95943.16;;;13.23;100.00
54994;BME280;40891;47.242;8.648;2023-05-16T05:43:28;95940.38;;;13.38;100.00
54994;BME280;40891;47.242;8.648;2023-05-16T05:45:54;95937.41;;;13.41;100.00
54994;BME280;40891;47.242;8.648;2023-05-16T05:48:20;95942.63;;;13.48;100.00
54994;BME280;40891;47.242;8.648;2023-05-16T05:50:45;95937.09;;;13.54;100.00
54994;BME280;40891;47.242;8.648;2023-05-16T05:53:11;95945.56;;;13.59;100.00
54994;BME280;40891;47.242;8.648;2023-05-16T05:55:36;95942.56;;;13.63;100.00
54994;BME280;40891;47.242;8.648;2023-05-16T05:58:01;95941.16;;;13.68;100.00
54994;BME280;40891;47.242;8.648;2023-05-16T06:00:27;95943.34;;;13.78;100.00
54994;BME280;40891;47.242;8.648;2023-05-16T06:02:53;95941.22;;;13.73;100.00
54994;BME280;40891;47.242;8.648;2023-05-16T06:05:19;95942.00;;;13.74;100.00
54994;BME280;40891;47.242;8.648;2023-05-16T06:07:44;95943.16;;;13.82;100.00
54994;BME280;40891;47.242;8.648;2023-05-16T06:10:09;95946.09;;;13.93;99.23
54994;BME280;40891;47.242;8.648;2023-05-16T06:12:35;95946.19;;;13.98;97.61
54994;BME280;40891;47.242;8.648;2023-05-16T06:15:00;95955.97;;;14.08;98.27
54994;BME280;40891;47.242;8.648;2023-05-16T06:17:25;95955.41;;;14.04;98.26
54994;BME280;40891;47.242;8.648;2023-05-16T06:19:51;95956.88;;;14.00;97.61
54994;BME280;40891;47.242;8.648;2023-05-16T06:22:16;95948.09;;;14.07;97.72
54994;BME280;40891;47.242;8.648;2023-05-16T06:24:41;95946.41;;;14.15;98.26
54994;BME280;40891;47.242;8.648;2023-05-16T06:27:07;95957.91;;;14.17;97.75
54994;BME280;40891;47.242;8.648;2023-05-16T06:29:32;95959.69;;;14.20;97.28
54994;BME280;40891;47.242;8.648;2023-05-16T06:31:58;95957.66;;;14.00;96.54
54994;BME280;40891;47.242;8.648;2023-05-16T06:34:23;95966.03;;;14.00;97.56
54994;BME280;40891;47.242;8.648;2023-05-16T06:36:52;95963.84;;;13.90;96.93
54994;BME280;40891;47.242;8.648;2023-05-16T06:39:18;95950.94;;;13.78;97.57
54994;BME280;40891;47.242;8.648;2023-05-16T06:41:43;95946.53;;;13.71;97.91
54994;BME280;40891;47.242;8.648;2023-05-16T06:44:09;95953.16;;;13.74;97.21
54994;BME280;40891;47.242;8.648;2023-05-16T06:46:35;95953.44;;;13.76;96.01
54994;BME280;40891;47.242;8.648;2023-05-16T06:49:01;95957.69;;;13.71;96.76
54994;BME280;40891;47.242;8.648;2023-05-16T06:51:27;95946.81;;;13.73;96.53
54994;BME280;40891;47.242;8.648;2023-05-16T06:53:52;95954.25;;;13.61;96.85
54994;BME280;40891;47.242;8.648;2023-05-16T06:56:17;95949.03;;;13.69;96.92
54994;BME280;40891;47.242;8.648;2023-05-16T06:58:43;95954.34;;;13.67;97.21
54994;BME280;40891;47.242;8.648;2023-05-16T07:01:08;95962.84;;;13.58;97.31
54994;BME280;40891;47.242;8.648;2023-05-16T07:03:33;95956.56;;;13.48;97.38
54994;BME280;40891;47.242;8.648;2023-05-16T07:05:59;95955.69;;;13.42;98.80
54994;BME280;40891;47.242;8.648;2023-05-16T07:08:24;95958.88;;;13.35;97.78
54994;BME280;40891;47.242;8.648;2023-05-16T07:10:50;95957.34;;;13.34;98.38
54994;BME280;40891;47.242;8.648;2023-05-16T07:13:15;95956.28;;;13.32;98.41
54994;BME280;40891;47.242;8.648;2023-05-16T07:15:40;95959.16;;;13.37;98.56
54994;BME280;40891;47.242;8.648;2023-05-16T07:18:06;95958.03;;;13.44;96.54
54994;BME280;40891;47.242;8.648;2023-05-16T07:20:31;95957.31;;;13.49;97.25
54994;BME280;40891;47.242;8.648;2023-05-16T07:22:57;95959.44;;;13.54;97.84
54994;BME280;40891;47.242;8.648;2023-05-16T07:25:24;95959.81;;;13.61;98.83
54994;BME280;40891;47.242;8.648;2023-05-16T07:27:49;95954.63;;;13.69;97.42
54994;BME280;40891;47.242;8.648;2023-05-16T07:30:15;95953.56;;;13.67;95.12
54994;BME280;40891;47.242;8.648;2023-05-16T07:32:40;95956.75;;;13.74;94.64
54994;BME280;40891;47.242;8.648;2023-05-16T07:35:06;95961.16;;;13.81;95.11
54994;BME280;40891;47.242;8.648;2023-05-16T07:37:32;95958.84;;;13.79;93.94
54994;BME280;40891;47.242;8.648;2023-05-16T07:39:57;95959.97;;;13.87;93.65
54994;BME280;40891;47.242;8.648;2023-05-16T07:42:23;95954.00;;;13.94;94.01
54994;BME280;40891;47.242;8.648;2023-05-16T07:44:48;95961.91;;;13.96;94.50
54994;BME280;40891;47.242;8.648;2023-05-16T07:47:14;95965.25;;;14.00;95.13
54994;BME280;40891;47.242;8.648;2023-05-16T07:49:39;95958.63;;;13.97;93.24
54994;BME280;40891;47.242;8.648;2023-05-16T07:52:05;95960.63;;;13.97;93.05
54994;BME280;40891;47.242;8.648;2023-05-16T07:54:31;95963.16;;;13.95;93.56
54994;BME280;40891;47.242;8.648;2023-05-16T07:56:57;95963.72;;;13.99;95.15
54994;BME280;40891;47.242;8.648;2023-05-16T07:59:23;95971.28;;;14.13;94.69
54994;BME280;40891;47.242;8.648;2023-05-16T08:01:48;95970.72;;;14.09;94.85
54994;BME280;40891;47.242;8.648;2023-05-16T08:04:13;95967.38;;;14.05;93.89
54994;BME280;40891;47.242;8.648;2023-05-16T08:06:39;95965.75;;;13.98;94.47
54994;BME280;40891;47.242;8.648;2023-05-16T08:09:04;95966.03;;;14.00;93.42
54994;BME280;40891;47.242;8.648;2023-05-16T08:11:30;95973.09;;;13.96;93.64
54994;BME280;40891;47.242;8.648;2023-05-16T08:13:55;95966.72;;;13.95;93.15
54994;BME280;40891;47.242;8.648;2023-05-16T08:16:20;95967.50;;;13.96;92.05
54994;BME280;40891;47.242;8.648;2023-05-16T08:18:46;95974.44;;;14.00;93.03
54994;BME280;40891;47.242;8.648;2023-05-16T08:21:11;95972.63;;;14.17;92.67
54994;BME280;40891;47.242;8.648;2023-05-16T08:23:38;95981.91;;;14.09;92.43
54994;BME280;40891;47.242;8.648;2023-05-16T08:26:03;95972.09;;;13.99;91.91
54994;BME280;40891;47.242;8.648;2023-05-16T08:28:29;95976.72;;;14.02;91.19
54994;BME280;40891;47.242;8.648;2023-05-16T08:30:55;95973.25;;;14.07;91.75
54994;BME280;40891;47.242;8.648;2023-05-16T08:33:20;95979.97;;;14.15;90.85
54994;BME280;40891;47.242;8.648;2023-05-16T08:35:46;95979.00;;;14.18;91.69
54994;BME280;40891;47.242;8.648;2023-05-16T08:38:13;95981.66;;;14.27;90.76
54994;BME280;40891;47.242;8.648;2023-05-16T08:40:39;95973.47;;;14.38;90.66
54994;BME280;40891;47.242;8.648;2023-05-16T08:43:05;95973.06;;;14.45;91.69
54994;BME280;40891;47.242;8.648;2023-05-16T08:45:30;95975.28;;;14.41;91.39
54994;BME280;40891;47.242;8.648;2023-05-16T08:47:56;95978.47;;;14.34;88.15
54994;BME280;40891;47.242;8.648;2023-05-16T08:50:25;95981.94;;;14.44;87.50
54994;BME280;40891;47.242;8.648;2023-05-16T08:52:53;95975.31;;;14.61;88.75
54994;BME280;40891;47.242;8.648;2023-05-16T08:55:19;95971.88;;;14.72;88.83
54994;BME280;40891;47.242;8.648;2023-05-16T08:57:48;95965.09;;;14.78;89.54
54994;BME280;40891;47.242;8.648;2023-05-16T09:00:14;95971.16;;;14.77;87.80
54994;BME280;40891;47.242;8.648;2023-05-16T09:02:41;95971.53;;;14.64;87.82
54994;BME280;40891;47.242;8.648;2023-05-16T09:05:08;95971.53;;;14.64;88.26
54994;BME280;40891;47.242;8.648;2023-05-16T09:07:35;95964.94;;;14.67;88.79
54994;BME280;40891;47.242;8.648;2023-05-16T09:10:00;95967.06;;;14.52;88.75
54994;BME280;40891;47.242;8.648;2023-05-16T09:12:25;95962.72;;;14.51;89.09
54994;BME280;40891;47.242;8.648;2023-05-16T09:14:50;95963.25;;;14.55;90.06
54994;BME280;40891;47.242;8.648;2023-05-16T09:17:16;95959.50;;;14.58;91.23
54994;BME280;40891;47.242;8.648;2023-05-16T09:19:42;95956.69;;;14.58;88.50
54994;BME280;40891;47.242;8.648;2023-05-16T09:22:10;95959.63;;;14.49;89.20
54994;BME280;40891;47.242;8.648;2023-05-16T09:24:43;95964.81;;;14.56;88.68
54994;BME280;40891;47.242;8.648;2023-05-16T09:27:10;95954.81;;;14.70;90.05
54994;BME280;40891;47.242;8.648;2023-05-16T09:29:36;95964.03;;;14.76;88.93
54994;BME280;40891;47.242;8.648;2023-05-16T09:32:09;95962.69;;;14.91;87.32
54994;BME280;40891;47.242;8.648;2023-05-16T09:34:47;95959.97;;;14.97;86.50
54994;BME280;40891;47.242;8.648;2023-05-16T09:37:17;95964.94;;;14.87;86.79
54994;BME280;40891;47.242;8.648;2023-05-16T09:39:48;95956.19;;;14.80;86.55
54994;BME280;40891;47.242;8.648;2023-05-16T09:42:14;95963.53;;;14.77;86.00
54994;BME280;40891;47.242;8.648;2023-05-16T09:44:41;95966.63;;;14.79;89.33
54994;BME280;40891;47.242;8.648;2023-05-16T09:47:09;95955.16;;;14.57;89.91
54994;BME280;40891;47.242;8.648;2023-05-16T09:49:36;95969.56;;;14.50;90.00
54994;BME280;40891;47.242;8.648;2023-05-16T09:52:03;95956.06;;;14.49;91.34
54994;BME280;40891;47.242;8.648;2023-05-16T09:54:30;95955.28;;;14.48;92.84
54994;BME280;40891;47.242;8.648;2023-05-16T09:56:57;95957.38;;;14.33;90.13
54994;BME280;40891;47.242;8.648;2023-05-16T09:59:22;95950.81;;;14.36;90.90
54994;BME280;40891;47.242;8.648;2023-05-16T10:01:48;95957.44;;;14.39;91.70
54994;BME280;40891;47.242;8.648;2023-05-16T10:04:15;95953.25;;;14.49;92.80
54994;BME280;40891;47.242;8.648;2023-05-16T10:06:41;95953.63;;;14.56;93.02
54994;BME280;40891;47.242;8.648;2023-05-16T10:09:10;95962.00;;;14.56;93.36
54994;BME280;40891;47.242;8.648;2023-05-16T10:11:38;95972.78;;;14.63;93.82
54994;BME280;40891;47.242;8.648;2023-05-16T10:14:05;95964.25;;;14.52;91.71
54994;BME280;40891;47.242;8.648;2023-05-16T10:16:31;95965.59;;;14.57;93.10
54994;BME280;40891;47.242;8.648;2023-05-16T10:18:57;95958.88;;;14.69;93.88
54994;BME280;40891;47.242;8.648;2023-05-16T10:21:24;95968.59;;;14.73;91.52
54994;BME280;40891;47.242;8.648;2023-05-16T10:23:53;95965.16;;;14.84;89.13
54994;BME280;40891;47.242;8.648;2023-05-16T10:26:21;95962.16;;;14.87;89.62
54994;BME280;40891;47.242;8.648;2023-05-16T10:28:47;95965.22;;;14.89;90.12
54994;BME280;40891;47.242;8.648;2023-05-16T10:31:14;95967.31;;;14.74;86.98
54994;BME280;40891;47.242;8.648;2023-05-16T10:33:40;95957.03;;;14.66;84.15
54994;BME280;40891;47.242;8.648;2023-05-16T10:36:07;95964.63;;;14.60;79.88
54994;BME280;40891;47.242;8.648;2023-05-16T10:38:34;95967.69;;;14.62;81.79
54994;BME280;40891;47.242;8.648;2023-05-16T10:41:00;95964.81;;;14.36;83.07
54994;BME280;40891;47.242;8.648;2023-05-16T10:43:27;95973.63;;;14.14;86.29
54994;BME280;40891;47.242;8.648;2023-05-16T10:46:03;95973.53;;;14.09;87.78
54994;BME280;40891;47.242;8.648;2023-05-16T10:48:34;95975.00;;;13.90;87.77
54994;BME280;40891;47.242;8.648;2023-05-16T10:50:59;95967.69;;;13.92;89.20
54994;BME280;40891;47.242;8.648;2023-05-16T10:53:34;95973.66;;;13.85;91.06
54994;BME280;40891;47.242;8.648;2023-05-16T11:01:19;95975.31;;;13.77;93.34
54994;BME280;40891;47.242;8.648;2023-05-16T11:09:04;95982.56;;;14.53;93.19
54994;BME280;40891;47.242;8.648;2023-05-16T11:11:44;95972.69;;;14.98;91.72
54994;BME280;40891;47.242;8.648;2023-05-16T11:19:34;95969.44;;;15.25;86.92
54994;BME280;40891;47.242;8.648;2023-05-16T11:22:24;95976.34;;;15.04;89.33
54994;BME280;40891;47.242;8.648;2023-05-16T11:24:53;95983.00;;;14.86;86.44
54994;BME280;40891;47.242;8.648;2023-05-16T11:32:36;95989.41;;;14.17;90.22
54994;BME280;40891;47.242;8.648;2023-05-16T11:35:03;95993.09;;;14.09;93.60
54994;BME280;40891;47.242;8.648;2023-05-16T11:37:29;95998.13;;;14.05;94.79
54994;BME280;40891;47.242;8.648;2023-05-16T11:40:02;96002.69;;;13.88;96.63
54994;BME280;40891;47.242;8.648;2023-05-16T11:42:34;96008.38;;;13.93;97.42
54994;BME280;40891;47.242;8.648;2023-05-16T11:45:08;96011.75;;;13.83;96.82
54994;BME280;40891;47.242;8.648;2023-05-16T11:47:39;96009.41;;;13.37;90.63
54994;BME280;40891;47.242;8.648;2023-05-16T11:50:18;96007.03;;;13.45;92.26
54994;BME280;40891;47.242;8.648;2023-05-16T11:52:46;96008.56;;;13.46;97.58
54994;BME280;40891;47.242;8.648;2023-05-16T11:55:12;96010.56;;;13.31;99.17
54994;BME280;40891;47.242;8.648;2023-05-16T11:57:39;96010.78;;;13.27;98.18
54994;BME280;40891;47.242;8.648;2023-05-16T12:00:17;96008.91;;;13.10;96.92
54994;BME280;40891;47.242;8.648;2023-05-16T12:02:47;96020.56;;;13.08;99.75
54994;BME280;40891;47.242;8.648;2023-05-16T12:05:13;96021.56;;;12.96;100.00
54994;BME280;40891;47.242;8.648;2023-05-16T12:07:39;96023.16;;;12.88;100.00
54994;BME280;40891;47.242;8.648;2023-05-16T12:10:10;96026.03;;;12.79;100.00
54994;BME280;40891;47.242;8.648;2023-05-16T12:12:37;96027.63;;;12.71;100.00
54994;BME280;40891;47.242;8.648;2023-05-16T12:15:04;96028.97;;;12.75;100.00
54994;BME280;40891;47.242;8.648;2023-05-16T12:17:31;96034.69;;;12.81;100.00
54994;BME280;40891;47.242;8.648;2023-05-16T12:19:57;96043.63;;;12.85;100.00
54994;BME280;40891;47.242;8.648;2023-05-16T12:22:24;96039.09;;;12.96;100.00
54994;BME280;40891;47.242;8.648;2023-05-16T12:24:49;96041.56;;;12.94;100.00
54994;BME280;40891;47.242;8.648;2023-05-16T12:27:21;96054.09;;;12.75;100.00
54994;BME280;40891;47.242;8.648;2023-05-16T12:29:47;96044.13;;;12.60;100.00
54994;BME280;40891;47.242;8.648;2023-05-16T12:32:17;96045.06;;;12.57;100.00
54994;BME280;40891;47.242;8.648;2023-05-16T12:34:48;96045.53;;;12.55;100.00
54994;BME280;40891;47.242;8.648;2023-05-16T12:37:15;96043.63;;;12.61;100.00
54994;BME280;40891;47.242;8.648;2023-05-16T12:39:40;96043.06;;;12.57;100.00
54994;BME280;40891;47.242;8.648;2023-05-16T12:42:06;96043.63;;;12.61;100.00
54994;BME280;40891;47.242;8.648;2023-05-16T12:44:32;96035.97;;;12.71;100.00
54994;BME280;40891;47.242;8.648;2023-05-16T12:46:57;96043.28;;;12.92;100.00
54994;BME280;40891;47.242;8.648;2023-05-16T12:49:23;96038.00;;;12.94;100.00
54994;BME280;40891;47.242;8.648;2023-05-16T12:51:50;96044.94;;;12.98;100.00
54994;BME280;40891;47.242;8.648;2023-05-16T12:54:16;96051.28;;;12.99;100.00
54994;BME280;40891;47.242;8.648;2023-05-16T12:56:41;96038.38;;;13.11;100.00
54994;BME280;40891;47.242;8.648;2023-05-16T12:59:07;96042.88;;;13.08;100.00
54994;BME280;40891;47.242;8.648;2023-05-16T13:01:34;96048.19;;;13.21;100.00
54994;BME280;40891;47.242;8.648;2023-05-16T13:03:59;96051.97;;;13.32;100.00
54994;BME280;40891;47.242;8.648;2023-05-16T13:06:25;96046.75;;;13.25;100.00
54994;BME280;40891;47.242;8.648;2023-05-16T13:08:50;96051.22;;;13.32;100.00
54994;BME280;40891;47.242;8.648;2023-05-16T13:11:16;96050.72;;;13.33;100.00
54994;BME280;40891;47.242;8.648;2023-05-16T13:13:41;96050.25;;;13.20;100.00
54994;BME280;40891;47.242;8.648;2023-05-16T13:16:06;96049.53;;;13.11;100.00